Time;durP1;ratioP1;P1;durP2;ratioP2;P2;SDS_P1;SDS_P2;PMS_P1;PMS_P2;Temp;Humidity;BMP_temperature;BMP_pressure;BME280_temperature;BME280_humidity;BME280_pressure;Samples;Min_cycle;Max_cycle;Signal;HPM_P1;HPM_P2
2021/11/28 00:00:18;;;;;;;;;;;;;;;4.14;81.52;99149.17;1733562;83;20488;-66
2021/11/28 00:02:46;;;;;;;;;;;;;;;4.14;81.51;99145.11;1733519;83;20250;-64
2021/11/28 00:05:16;;;;;;;;;;;;;;;4.16;81.68;99146.28;1733360;83;20205;-64
2021/11/28 00:07:52;;;;;;;;;;;;;;;4.19;81.84;99143.20;1733375;83;20501;-64
2021/11/28 00:12:59;;;;;;;;;;;;;;;4.15;81.77;99140.02;1733362;83;20316;-64
2021/11/28 00:15:18;;;;;;;;;;;;;;;4.12;81.76;99143.10;1733505;82;20511;-65
2021/11/28 00:17:46;;;;;;;;;;;;;;;4.10;81.63;99141.93;1733453;83;20159;-64
2021/11/28 00:20:16;;;;;;;;;;;;;;;4.09;81.41;99144.31;1733461;83;20209;-64
2021/11/28 00:22:45;;;;;;;;;;;;;;;4.03;81.35;99142.36;1733528;83;20173;-64
2021/11/28 00:25:16;;;;;;;;;;;;;;;4.02;81.57;99135.25;1733623;83;20483;-64
2021/11/28 00:27:45;;;;;;;;;;;;;;;4.02;81.77;99150.16;1733441;83;20198;-64
2021/11/28 00:30:18;;;;;;;;;;;;;;;4.03;81.90;99158.61;1733542;83;20472;-65
2021/11/28 00:32:47;;;;;;;;;;;;;;;4.03;81.79;99164.03;1733278;83;20194;-64
2021/11/28 00:35:17;;;;;;;;;;;;;;;4.01;81.60;99172.86;1733593;83;20464;-65
2021/11/28 00:37:46;;;;;;;;;;;;;;;3.99;81.53;99164.08;1733385;83;20146;-64
2021/11/28 00:40:15;;;;;;;;;;;;;;;3.97;81.56;99164.78;1733705;83;20548;-65
2021/11/28 00:42:43;;;;;;;;;;;;;;;3.94;81.51;99167.86;1733533;83;20472;-65
2021/11/28 00:45:12;;;;;;;;;;;;;;;3.92;81.52;99170.42;1733572;83;20142;-65
2021/11/28 00:47:40;;;;;;;;;;;;;;;3.89;81.64;99164.84;1733469;83;20522;-65
2021/11/28 00:52:39;;;;;;;;;;;;;;;3.93;81.49;99158.05;1733398;83;20477;-65
2021/11/28 00:55:09;;;;;;;;;;;;;;;3.93;81.45;99158.56;1733805;83;20451;-66
2021/11/28 00:57:37;;;;;;;;;;;;;;;3.91;81.41;99158.75;1733786;83;20444;-64
2021/11/28 01:00:09;;;;;;;;;;;;;;;3.87;81.31;99157.92;1733531;82;20226;-64
2021/11/28 01:02:39;;;;;;;;;;;;;;;3.83;81.29;99160.16;1733468;82;20218;-65
2021/11/28 01:05:10;;;;;;;;;;;;;;;3.79;81.34;99160.20;1733443;82;20190;-65
2021/11/28 01:07:40;;;;;;;;;;;;;;;3.81;81.35;99163.56;1733456;83;20150;-64
2021/11/28 01:10:09;;;;;;;;;;;;;;;3.81;81.32;99163.56;1733711;83;20539;-64
2021/11/28 01:12:39;;;;;;;;;;;;;;;3.80;81.37;99160.52;1733482;83;20199;-66
2021/11/28 01:15:09;;;;;;;;;;;;;;;3.79;81.37;99165.61;1735893;83;20158;-64
2021/11/28 01:17:39;;;;;;;;;;;;;;;3.75;81.42;99173.27;1738621;83;20150;-64
2021/11/28 01:20:08;;;;;;;;;;;;;;;3.70;81.35;99168.92;1738702;83;20550;-65
2021/11/28 01:22:38;;;;;;;;;;;;;;;3.66;81.37;99173.53;1738732;82;20217;-64
2021/11/28 01:25:09;;;;;;;;;;;;;;;3.65;81.43;99174.05;1738900;82;20476;-67
2021/11/28 01:27:38;;;;;;;;;;;;;;;3.64;81.48;99173.72;1738646;82;20186;-65
2021/11/28 01:30:07;;;;;;;;;;;;;;;3.63;81.60;99168.48;1738663;82;20496;-64
2021/11/28 01:32:37;;;;;;;;;;;;;;;3.63;81.71;99165.77;1738648;83;20213;-64
2021/11/28 01:35:08;;;;;;;;;;;;;;;3.60;81.63;99158.02;1738867;83;20453;-65
2021/11/28 01:37:37;;;;;;;;;;;;;;;3.56;81.71;99153.48;1738679;83;20158;-65
2021/11/28 01:40:11;;;;;;;;;;;;;;;3.58;81.66;99157.36;1712026;83;20460;-64
2021/11/28 01:42:45;;;;;;;;;;;;;;;3.56;81.49;99153.98;1738749;83;20492;-64
2021/11/28 01:45:25;;;;;;;;;;;;;;;3.51;81.52;99151.83;1738690;83;20210;-63
2021/11/28 01:47:55;;;;;;;;;;;;;;;3.45;81.47;99160.69;1738866;83;20173;-64
2021/11/28 01:50:24;;;;;;;;;;;;;;;3.37;81.39;99161.60;1738696;83;20468;-63
2021/11/28 01:52:54;;;;;;;;;;;;;;;3.35;81.51;99164.16;1736243;83;20214;-64
2021/11/28 01:55:26;;;;;;;;;;;;;;;3.33;81.57;99167.05;1738751;82;20154;-64
2021/11/28 01:57:56;;;;;;;;;;;;;;;3.28;81.46;99169.45;1736098;83;20210;-64
2021/11/28 02:00:27;;;;;;;;;;;;;;;3.27;81.55;99176.41;1738884;83;20154;-65
2021/11/28 02:02:57;;;;;;;;;;;;;;;3.25;81.61;99177.06;1735995;83;20174;-65
2021/11/28 02:05:27;;;;;;;;;;;;;;;3.25;81.90;99182.00;1738855;83;20644;-64
2021/11/28 02:07:56;;;;;;;;;;;;;;;3.27;82.22;99177.25;1738677;82;20219;-65
2021/11/28 02:10:26;;;;;;;;;;;;;;;3.29;82.41;99170.30;1738737;83;20162;-65
2021/11/28 02:12:56;;;;;;;;;;;;;;;3.32;82.44;99158.59;1738710;82;20174;-65
2021/11/28 02:15:24;;;;;;;;;;;;;;;3.37;82.25;99151.28;1738715;82;20506;-65
2021/11/28 02:17:54;;;;;;;;;;;;;;;3.38;82.05;99156.52;1738799;82;20230;-64
2021/11/28 02:20:26;;;;;;;;;;;;;;;3.31;81.85;99152.02;1738800;83;20150;-64
2021/11/28 02:22:54;;;;;;;;;;;;;;;3.25;81.86;99150.00;1738702;82;20507;-65
2021/11/28 02:25:25;;;;;;;;;;;;;;;3.24;82.05;99151.02;1738291;83;20460;-65
2021/11/28 02:27:54;;;;;;;;;;;;;;;3.23;82.08;99151.53;1735891;83;20162;-64
2021/11/28 02:30:23;;;;;;;;;;;;;;;3.26;82.05;99151.72;1738801;83;20173;-65
2021/11/28 02:32:53;;;;;;;;;;;;;;;3.28;82.02;99151.86;1738733;82;20151;-63
2021/11/28 02:35:21;;;;;;;;;;;;;;;3.27;81.88;99146.63;1711723;83;20154;-65
2021/11/28 02:37:51;;;;;;;;;;;;;;;3.23;82.01;99135.30;1738747;82;20161;-65
2021/11/28 02:40:21;;;;;;;;;;;;;;;3.18;82.13;99137.20;1738595;82;20178;-65
2021/11/28 02:42:50;;;;;;;;;;;;;;;3.12;82.32;99139.78;1738606;83;20163;-64
2021/11/28 02:45:19;;;;;;;;;;;;;;;3.13;82.37;99137.41;1738508;83;20549;-65
2021/11/28 02:47:48;;;;;;;;;;;;;;;3.11;82.32;99114.59;1738832;83;20201;-63
2021/11/28 02:50:17;;;;;;;;;;;;;;;3.12;82.29;99114.08;1738698;83;20162;-65
2021/11/28 02:52:53;;;;;;;;;;;;;;;3.12;82.27;99116.78;1738731;83;20182;-64
2021/11/28 02:55:18;;;;;;;;;;;;;;;3.10;82.27;99120.19;1738337;82;20210;-66
2021/11/28 02:57:47;;;;;;;;;;;;;;;3.07;82.28;99132.20;1738898;83;20500;-63
2021/11/28 03:00:16;;;;;;;;;;;;;;;3.01;82.22;99144.27;1738607;83;20471;-66
2021/11/28 03:02:44;;;;;;;;;;;;;;;2.92;82.30;99145.34;1735916;83;20226;-65
2021/11/28 03:05:21;;;;;;;;;;;;;;;2.88;82.50;99154.84;1738558;82;20197;-65
2021/11/28 03:07:50;;;;;;;;;;;;;;;2.83;82.72;99166.20;1735984;82;20213;-63
2021/11/28 03:10:38;;;;;;;;;;;;;;;2.79;83.01;99160.81;1738713;83;20201;-65
2021/11/28 03:13:11;;;;;;;;;;;;;;;2.81;83.36;99153.36;1738695;82;20197;-73
2021/11/28 03:15:39;;;;;;;;;;;;;;;2.83;83.86;99153.52;1738633;82;20162;-65
2021/11/28 03:18:13;;;;;;;;;;;;;;;2.86;84.21;99160.43;1738734;82;20158;-66
2021/11/28 03:20:41;;;;;;;;;;;;;;;2.92;84.44;99152.95;1711967;83;20527;-63
2021/11/28 03:23:13;;;;;;;;;;;;;;;2.98;84.61;99151.39;1738670;83;20226;-64
2021/11/28 03:25:41;;;;;;;;;;;;;;;2.98;84.75;99144.62;1738865;83;20206;-64
2021/11/28 03:28:15;;;;;;;;;;;;;;;2.98;85.01;99150.03;1738875;82;20456;-65
2021/11/28 03:30:44;;;;;;;;;;;;;;;3.00;85.20;99158.81;1738773;83;20230;-65
2021/11/28 03:33:32;;;;;;;;;;;;;;;3.01;85.40;99168.11;1738883;83;20464;-64
2021/11/28 03:36:18;;;;;;;;;;;;;;;3.05;85.34;99177.55;1738933;82;20150;-64
2021/11/28 03:38:46;;;;;;;;;;;;;;;3.04;85.34;99188.55;1738744;82;20214;-64
2021/11/28 03:41:16;;;;;;;;;;;;;;;2.97;85.40;99170.84;1738673;83;20166;-64
2021/11/28 03:43:45;;;;;;;;;;;;;;;2.94;85.53;99173.06;1738665;83;20237;-64
2021/11/28 03:46:14;;;;;;;;;;;;;;;2.88;85.54;99179.19;1738990;83;20516;-65
2021/11/28 03:48:44;;;;;;;;;;;;;;;2.81;85.54;99174.48;1738875;83;20162;-66
2021/11/28 03:51:14;;;;;;;;;;;;;;;2.80;85.63;99172.80;1738637;82;20230;-66
2021/11/28 03:53:43;;;;;;;;;;;;;;;2.76;85.52;99174.18;1738830;83;20158;-64
2021/11/28 03:56:14;;;;;;;;;;;;;;;2.76;85.53;99182.30;1738828;83;20154;-66
2021/11/28 03:58:42;;;;;;;;;;;;;;;2.74;85.54;99178.92;1738625;83;20594;-66
2021/11/28 04:01:12;;;;;;;;;;;;;;;2.73;85.57;99181.81;1738750;83;20240;-65
2021/11/28 04:03:42;;;;;;;;;;;;;;;2.71;85.66;99179.28;1738751;83;20155;-66
2021/11/28 04:06:13;;;;;;;;;;;;;;;2.73;85.73;99171.83;1738277;82;20154;-65
2021/11/28 04:08:42;;;;;;;;;;;;;;;2.74;85.81;99176.22;1738786;83;20155;-66
2021/11/28 04:11:12;;;;;;;;;;;;;;;2.77;85.82;99180.44;1738642;83;20178;-64
2021/11/28 04:13:40;;;;;;;;;;;;;;;2.77;85.83;99177.22;1738847;83;20151;-66
2021/11/28 04:16:11;;;;;;;;;;;;;;;2.75;85.79;99174.36;1738608;82;20538;-65
2021/11/28 04:18:40;;;;;;;;;;;;;;;2.74;85.77;99170.81;1738769;83;20210;-65
2021/11/28 04:21:10;;;;;;;;;;;;;;;2.77;85.68;99172.31;1736128;83;20178;-65
2021/11/28 04:23:40;;;;;;;;;;;;;;;2.75;85.32;99158.12;1738688;83;20221;-65
2021/11/28 04:26:08;;;;;;;;;;;;;;;2.66;85.12;99152.44;1738744;82;20190;-65
2021/11/28 04:28:37;;;;;;;;;;;;;;;2.55;85.13;99146.38;1738848;82;20456;-66
2021/11/28 04:31:06;;;;;;;;;;;;;;;2.46;85.03;99155.55;1738598;82;20210;-65
2021/11/28 04:33:35;;;;;;;;;;;;;;;2.40;85.22;99152.20;1738687;82;20491;-66
2021/11/28 04:36:04;;;;;;;;;;;;;;;2.41;85.27;99151.70;1739010;83;20173;-65
2021/11/28 04:38:35;;;;;;;;;;;;;;;2.41;85.26;99154.40;1738735;83;20217;-66
2021/11/28 04:41:04;;;;;;;;;;;;;;;2.43;85.25;99149.66;1738766;83;20512;-66
2021/11/28 04:43:36;;;;;;;;;;;;;;;2.47;85.20;99152.34;1738641;82;20155;-66
2021/11/28 04:46:07;;;;;;;;;;;;;;;2.46;85.14;99159.61;1738621;83;20151;-65
2021/11/28 04:48:36;;;;;;;;;;;;;;;2.43;85.24;99163.17;1738867;83;20496;-64
2021/11/28 04:51:06;;;;;;;;;;;;;;;2.43;85.31;99165.37;1736960;83;20266;-65
2021/11/28 04:53:35;;;;;;;;;;;;;;;2.44;85.39;99167.56;1738742;83;20183;-65
2021/11/28 04:56:05;;;;;;;;;;;;;;;2.45;85.41;99178.70;1738631;83;20273;-65
2021/11/28 04:58:37;;;;;;;;;;;;;;;2.51;85.41;99176.14;1738878;83;20210;-65
2021/11/28 05:01:05;;;;;;;;;;;;;;;2.53;85.40;99178.16;1738620;83;20182;-65
2021/11/28 05:03:34;;;;;;;;;;;;;;;2.55;85.44;99176.63;1738640;83;20290;-65
2021/11/28 05:06:21;;;;;;;;;;;;;;;2.58;85.45;99184.39;1738858;83;20505;-64
2021/11/28 05:08:57;;;;;;;;;;;;;;;2.55;85.48;99181.53;1721855;83;20166;-66
2021/11/28 05:11:26;;;;;;;;;;;;;;;2.58;85.55;99181.69;1738788;83;20183;-65
2021/11/28 05:13:56;;;;;;;;;;;;;;;2.60;85.45;99174.75;1738700;82;20210;-63
2021/11/28 05:16:26;;;;;;;;;;;;;;;2.60;85.47;99180.16;1735932;82;20147;-64
2021/11/28 05:19:16;;;;;;;;;;;;;;;2.59;85.52;99198.75;1733593;82;20202;-67
2021/11/28 05:22:03;;;;;;;;;;;;;;;2.54;85.46;99195.22;1733307;83;20178;-64
2021/11/28 05:24:34;;;;;;;;;;;;;;;2.54;85.58;99191.16;1733626;83;20432;-64
2021/11/28 05:27:03;;;;;;;;;;;;;;;2.53;85.65;99191.67;1733399;83;20217;-64
2021/11/28 05:29:34;;;;;;;;;;;;;;;2.52;85.71;99182.39;1733178;83;20186;-66
2021/11/28 05:32:03;;;;;;;;;;;;;;;2.54;85.69;99177.14;1733491;83;20242;-66
2021/11/28 05:34:50;;;;;;;;;;;;;;;2.52;85.51;99185.94;1733692;83;20151;-64
2021/11/28 05:37:26;;;;;;;;;;;;;;;2.49;85.39;99181.39;1733595;83;20226;-65
2021/11/28 05:39:56;;;;;;;;;;;;;;;2.42;85.38;99181.76;1733321;82;20225;-66
2021/11/28 05:42:24;;;;;;;;;;;;;;;2.42;85.66;99174.49;1733561;83;20497;-65
2021/11/28 05:44:53;;;;;;;;;;;;;;;2.45;85.83;99174.66;1733323;83;20174;-65
2021/11/28 05:47:23;;;;;;;;;;;;;;;2.47;85.88;99173.45;1718061;82;20156;-66
2021/11/28 05:49:56;;;;;;;;;;;;;;;2.48;85.84;99179.20;1719113;82;20234;-66
2021/11/28 05:52:26;;;;;;;;;;;;;;;2.47;85.81;99178.02;1732477;82;20190;-65
2021/11/28 05:54:56;;;;;;;;;;;;;;;2.48;85.86;99185.95;1733342;82;20630;-65
2021/11/28 05:57:25;;;;;;;;;;;;;;;2.52;85.85;99183.74;1733085;83;20218;-64
2021/11/28 05:59:53;;;;;;;;;;;;;;;2.56;85.81;99197.23;1733318;83;20154;-63
2021/11/28 06:02:22;;;;;;;;;;;;;;;2.56;85.73;99199.95;1733386;83;20238;-65
2021/11/28 06:04:52;;;;;;;;;;;;;;;2.54;85.67;99200.12;1733342;82;20154;-65
2021/11/28 06:07:42;;;;;;;;;;;;;;;2.46;85.49;99198.80;1705974;82;20216;-66
2021/11/28 06:10:10;;;;;;;;;;;;;;;2.45;85.71;99201.69;1733082;83;20544;-65
2021/11/28 06:12:39;;;;;;;;;;;;;;;2.45;85.78;99193.57;1733468;83;20496;-65
2021/11/28 06:15:08;;;;;;;;;;;;;;;2.49;85.78;99199.80;1733737;82;20445;-65
2021/11/28 06:17:39;;;;;;;;;;;;;;;2.48;85.62;99198.12;1738483;82;20479;-65
2021/11/28 06:20:26;;;;;;;;;;;;;;;2.50;85.75;99199.30;1738710;82;20456;-65
2021/11/28 06:22:56;;;;;;;;;;;;;;;2.51;85.92;99195.58;1738723;82;20496;-65
2021/11/28 06:25:25;;;;;;;;;;;;;;;2.49;86.01;99198.45;1735909;82;20467;-66
2021/11/28 06:27:55;;;;;;;;;;;;;;;2.48;86.13;99198.12;1710625;83;20254;-66
2021/11/28 06:30:23;;;;;;;;;;;;;;;2.49;86.34;99182.74;1738901;83;20501;-65
2021/11/28 06:33:04;;;;;;;;;;;;;;;2.49;86.46;99187.64;1738527;82;20150;-66
2021/11/28 06:35:40;;;;;;;;;;;;;;;2.50;86.59;99189.83;1738570;82;20547;-65
2021/11/28 06:38:27;;;;;;;;;;;;;;;2.54;86.76;99188.47;1738704;83;20553;-67
2021/11/28 06:41:12;;;;;;;;;;;;;;;2.61;86.98;99192.17;1738245;82;20484;-66
2021/11/28 06:43:42;;;;;;;;;;;;;;;2.63;87.09;99196.91;1738547;83;20155;-66
2021/11/28 06:46:12;;;;;;;;;;;;;;;2.64;87.31;99187.77;1738727;82;20154;-65
2021/11/28 06:48:43;;;;;;;;;;;;;;;2.65;87.53;99189.45;1738694;83;20246;-66
2021/11/28 06:51:16;;;;;;;;;;;;;;;2.61;87.67;99188.13;1725986;83;20534;-64
2021/11/28 06:53:46;;;;;;;;;;;;;;;2.62;87.88;99194.38;1738746;82;20158;-65
2021/11/28 06:56:23;;;;;;;;;;;;;;;2.63;88.03;99203.66;1738183;82;20213;-65
2021/11/28 06:58:53;;;;;;;;;;;;;;;2.69;88.10;99215.13;1738717;83;20182;-66
2021/11/28 07:01:23;;;;;;;;;;;;;;;2.71;88.11;99200.92;1738494;83;20206;-66
2021/11/28 07:03:57;;;;;;;;;;;;;;;2.71;88.10;99202.27;1730214;83;20162;-65
2021/11/28 07:06:27;;;;;;;;;;;;;;;2.71;88.17;99204.12;1738838;82;20142;-66
2021/11/28 07:08:56;;;;;;;;;;;;;;;2.72;88.31;99205.30;1738657;83;20205;-65
2021/11/28 07:11:25;;;;;;;;;;;;;;;2.71;88.23;99199.56;1735803;83;20190;-66
2021/11/28 07:13:55;;;;;;;;;;;;;;;2.71;88.15;99189.25;1738618;83;20166;-64
2021/11/28 07:16:24;;;;;;;;;;;;;;;2.74;88.23;99197.02;1738463;82;20186;-65
2021/11/28 07:18:53;;;;;;;;;;;;;;;2.76;88.33;99194.47;1738600;83;20481;-66
2021/11/28 07:21:23;;;;;;;;;;;;;;;2.82;88.56;99188.34;1738278;82;20158;-66
2021/11/28 07:23:52;;;;;;;;;;;;;;;2.89;88.69;99195.75;1738633;83;20238;-66
2021/11/28 07:26:21;;;;;;;;;;;;;;;2.91;88.82;99197.25;1738551;83;20203;-65
2021/11/28 07:28:49;;;;;;;;;;;;;;;2.91;88.83;99195.91;1738759;82;20217;-64
2021/11/28 07:31:21;;;;;;;;;;;;;;;2.90;88.86;99201.48;1738892;83;20186;-65
2021/11/28 07:34:11;;;;;;;;;;;;;;;2.93;88.96;99203.33;1738817;83;20456;-65
2021/11/28 07:37:00;;;;;;;;;;;;;;;2.96;89.11;99204.33;1738653;83;20277;-65
2021/11/28 07:39:28;;;;;;;;;;;;;;;2.97;89.31;99203.81;1738572;83;20218;-65
2021/11/28 07:41:57;;;;;;;;;;;;;;;3.00;89.50;99204.80;1738782;82;20460;-67
2021/11/28 07:44:39;;;;;;;;;;;;;;;3.02;89.65;99210.88;1738833;83;20193;-64
2021/11/28 07:47:09;;;;;;;;;;;;;;;3.07;89.75;99215.25;1739032;83;20201;-67
2021/11/28 07:49:39;;;;;;;;;;;;;;;3.13;89.72;99214.02;1738541;83;20296;-66
2021/11/28 07:52:09;;;;;;;;;;;;;;;3.19;89.71;99224.64;1738551;82;20186;-65
2021/11/28 07:54:38;;;;;;;;;;;;;;;3.21;89.74;99223.95;1738662;83;20520;-65
2021/11/28 07:57:07;;;;;;;;;;;;;;;3.20;89.75;99223.62;1738604;83;20158;-66
2021/11/28 07:59:53;;;;;;;;;;;;;;;3.22;89.77;99205.84;1738741;83;20158;-67
2021/11/28 08:02:22;;;;;;;;;;;;;;;3.21;89.79;99196.88;1738656;82;20568;-65
2021/11/28 08:04:53;;;;;;;;;;;;;;;3.21;89.87;99187.92;1738732;83;20209;-64
2021/11/28 08:07:42;;;;;;;;;;;;;;;3.23;89.87;99191.29;1738679;82;20194;-66
2021/11/28 08:10:31;;;;;;;;;;;;;;;3.30;89.98;99185.52;1738536;82;20193;-66
2021/11/28 08:12:59;;;;;;;;;;;;;;;3.34;89.96;99186.84;1738640;82;20529;-66
2021/11/28 08:15:29;;;;;;;;;;;;;;;3.38;90.04;99182.75;1738520;83;20514;-67
2021/11/28 08:17:58;;;;;;;;;;;;;;;3.37;89.99;99190.02;1738516;82;20185;-66
2021/11/28 08:20:28;;;;;;;;;;;;;;;3.39;90.04;99191.20;1738727;83;20166;-65
2021/11/28 08:22:56;;;;;;;;;;;;;;;3.39;90.02;99192.55;1738674;83;20229;-65
2021/11/28 08:25:25;;;;;;;;;;;;;;;3.39;90.06;99194.75;1738593;83;20487;-65
2021/11/28 08:27:53;;;;;;;;;;;;;;;3.42;90.00;99196.25;1738866;83;20487;-65
2021/11/28 08:30:22;;;;;;;;;;;;;;;3.43;89.82;99198.78;1738870;82;20460;-67
2021/11/28 08:33:10;;;;;;;;;;;;;;;3.45;89.82;99191.83;1738723;83;20154;-67
2021/11/28 08:35:51;;;;;;;;;;;;;;;3.50;89.87;99194.31;1738335;82;20488;-65
2021/11/28 08:38:19;;;;;;;;;;;;;;;3.50;89.80;99194.31;1738848;82;20499;-66
2021/11/28 08:40:49;;;;;;;;;;;;;;;3.52;89.82;99201.42;1738698;83;20174;-67
2021/11/28 08:43:17;;;;;;;;;;;;;;;3.52;89.77;99200.06;1738681;83;20512;-66
2021/11/28 08:45:46;;;;;;;;;;;;;;;3.51;89.72;99187.03;1738501;83;20146;-66
2021/11/28 08:48:15;;;;;;;;;;;;;;;3.54;89.69;99179.06;1738733;82;20609;-66
2021/11/28 08:50:43;;;;;;;;;;;;;;;3.57;89.69;99173.28;1738762;83;20218;-66
2021/11/28 08:53:12;;;;;;;;;;;;;;;3.57;89.68;99175.47;1738574;83;20294;-65
2021/11/28 08:55:42;;;;;;;;;;;;;;;3.56;89.75;99176.50;1738543;82;20162;-66
2021/11/28 08:58:12;;;;;;;;;;;;;;;3.57;89.85;99181.40;1738681;82;20457;-66
2021/11/28 09:00:41;;;;;;;;;;;;;;;3.57;89.92;99182.24;1738792;82;20166;-67
2021/11/28 09:03:10;;;;;;;;;;;;;;;3.60;89.96;99177.81;1738569;82;20507;-65
2021/11/28 09:05:38;;;;;;;;;;;;;;;3.67;90.04;99181.47;1738797;83;20281;-65
2021/11/28 09:08:07;;;;;;;;;;;;;;;3.73;90.04;99188.02;1738555;83;20186;-66
2021/11/28 09:10:41;;;;;;;;;;;;;;;3.75;90.08;99180.55;1738602;83;20158;-66
2021/11/28 09:13:10;;;;;;;;;;;;;;;3.80;90.13;99179.48;1741539;82;20177;-65
2021/11/28 09:15:41;;;;;;;;;;;;;;;3.90;90.53;99171.97;1753567;81;20214;-62
2021/11/28 09:18:15;;;;;;;;;;;;;;;3.94;90.44;99177.34;1741233;81;20468;-64
2021/11/28 09:20:45;;;;;;;;;;;;;;;4.00;90.50;99173.05;1738263;82;20473;-64
2021/11/28 09:26:43;;;;;;;;;;;;;;;4.06;90.15;99175.02;1729173;82;20222;-65
2021/11/28 09:29:18;;;;;;;;;;;;;;;4.12;90.11;99176.47;1691162;83;20200;-64
2021/11/28 09:31:47;;;;;;;;;;;;;;;4.14;90.17;99164.92;1695285;83;20476;-62
2021/11/28 09:34:17;;;;;;;;;;;;;;;4.19;90.17;99163.52;1742154;81;20152;-64
2021/11/28 09:36:45;;;;;;;;;;;;;;;4.22;90.15;99156.38;1735764;81;20310;-63
2021/11/28 09:42:25;;;;;;;;;;;;;;;4.32;90.09;99154.22;1736655;81;20527;-64
2021/11/28 09:44:52;;;;;;;;;;;;;;;4.33;89.81;99157.25;1748265;81;20238;-66
2021/11/28 09:47:38;;;;;;;;;;;;;;;4.31;89.67;99158.80;1754292;81;20187;-65
2021/11/28 09:50:24;;;;;;;;;;;;;;;4.32;89.70;99146.92;1755050;80;20159;-65
2021/11/28 09:52:54;;;;;;;;;;;;;;;4.35;89.69;99153.33;1747394;81;20218;-64
2021/11/28 09:55:23;;;;;;;;;;;;;;;4.36;89.62;99154.16;1742101;81;20194;-63
2021/11/28 09:57:57;;;;;;;;;;;;;;;4.34;89.50;99149.44;1748781;81;20150;-64
2021/11/28 10:00:39;;;;;;;;;;;;;;;4.36;89.34;99151.45;1739580;81;20189;-63
2021/11/28 10:03:09;;;;;;;;;;;;;;;4.35;89.22;99150.61;1745780;81;20260;-66
2021/11/28 10:08:36;;;;;;;;;;;;;;;4.42;89.39;99147.98;1721682;82;20550;-64
2021/11/28 10:11:25;;;;;;;;;;;;;;;4.42;89.28;99142.56;1710931;83;20242;-66
2021/11/28 10:14:12;;;;;;;;;;;;;;;4.43;89.27;99130.69;1752056;81;20151;-64
2021/11/28 10:17:04;;;;;;;;;;;;;;;4.50;89.26;99128.05;1675102;83;20181;-63
2021/11/28 10:19:43;;;;;;;;;;;;;;;4.52;89.06;99122.77;1721544;82;20515;-64
2021/11/28 10:22:24;;;;;;;;;;;;;;;4.53;89.02;99124.45;1747877;82;20162;-64
2021/11/28 10:24:56;;;;;;;;;;;;;;;4.54;89.04;99127.48;1745108;82;20205;-66
2021/11/28 10:27:36;;;;;;;;;;;;;;;4.53;89.02;99129.88;1745356;81;20193;-66
2021/11/28 10:30:06;;;;;;;;;;;;;;;4.56;89.13;99139.02;1745875;82;20189;-62
2021/11/28 10:32:40;;;;;;;;;;;;;;;4.61;89.05;99140.64;1746041;82;20181;-63
2021/11/28 10:35:10;;;;;;;;;;;;;;;4.62;88.85;99130.63;1745842;81;20581;-66
2021/11/28 10:37:40;;;;;;;;;;;;;;;4.64;88.84;99131.28;1746215;82;20518;-64
2021/11/28 10:40:11;;;;;;;;;;;;;;;4.63;88.78;99128.25;1743472;82;20243;-63
2021/11/28 10:42:39;;;;;;;;;;;;;;;4.63;88.94;99121.47;1743676;82;20518;-63
2021/11/28 10:45:23;;;;;;;;;;;;;;;4.66;89.05;99126.51;1745870;82;20212;-65
2021/11/28 10:47:57;;;;;;;;;;;;;;;4.65;89.04;99132.45;1746279;82;20161;-63
2021/11/28 10:50:30;;;;;;;;;;;;;;;4.67;89.09;99129.55;1746341;82;20194;-63
2021/11/28 10:53:15;;;;;;;;;;;;;;;4.70;89.10;99119.15;1746319;82;20216;-63
2021/11/28 10:55:46;;;;;;;;;;;;;;;4.78;89.25;99119.55;1750871;82;20467;-64
2021/11/28 10:58:24;;;;;;;;;;;;;;;4.83;89.33;99115.73;1722261;82;20197;-66
2021/11/28 11:00:57;;;;;;;;;;;;;;;4.90;89.51;99107.67;1751174;82;20154;-64
2021/11/28 11:03:30;;;;;;;;;;;;;;;4.96;89.58;99101.47;1751077;82;20214;-63
2021/11/28 11:06:15;;;;;;;;;;;;;;;5.01;89.55;99099.85;1721926;82;20507;-63
2021/11/28 11:08:43;;;;;;;;;;;;;;;5.03;89.34;99101.02;1750837;82;20153;-63
2021/11/28 11:11:16;;;;;;;;;;;;;;;5.05;89.19;99089.45;1686493;85;20158;-64
2021/11/28 11:14:01;;;;;;;;;;;;;;;5.06;88.96;99088.41;1686505;84;20547;-63
2021/11/28 11:16:40;;;;;;;;;;;;;;;5.05;88.96;99088.93;1688538;85;20248;-64
2021/11/28 11:19:28;;;;;;;;;;;;;;;5.05;88.96;99087.57;1701207;83;20197;-63
2021/11/28 11:22:15;;;;;;;;;;;;;;;5.06;89.01;99093.33;1689031;85;20163;-62
2021/11/28 11:24:49;;;;;;;;;;;;;;;5.08;89.09;99093.97;1701984;84;20336;-62
2021/11/28 11:27:18;;;;;;;;;;;;;;;5.09;89.06;99094.30;1689002;85;20318;-63
2021/11/28 11:29:50;;;;;;;;;;;;;;;5.12;89.05;99087.63;1739243;81;20237;-64
2021/11/28 11:32:24;;;;;;;;;;;;;;;5.14;89.06;99084.72;1736294;82;20181;-63
2021/11/28 11:34:55;;;;;;;;;;;;;;;5.14;89.09;99093.70;1759168;82;20157;-63
2021/11/28 11:37:26;;;;;;;;;;;;;;;5.14;89.14;99098.30;1742772;82;20154;-64
2021/11/28 11:39:56;;;;;;;;;;;;;;;5.14;89.18;99095.58;1759266;81;20233;-64
2021/11/28 11:42:27;;;;;;;;;;;;;;;5.13;89.26;99093.91;1742765;82;20284;-63
2021/11/28 11:44:56;;;;;;;;;;;;;;;5.16;89.41;99092.99;1758854;82;20161;-63
2021/11/28 11:47:25;;;;;;;;;;;;;;;5.20;89.42;99097.52;1758953;82;20269;-63
2021/11/28 11:49:53;;;;;;;;;;;;;;;5.24;89.47;99092.89;1742967;82;20154;-62
2021/11/28 11:52:23;;;;;;;;;;;;;;;5.27;89.52;99088.42;1759052;81;20463;-63
2021/11/28 11:54:56;;;;;;;;;;;;;;;5.29;89.59;99086.87;1742807;82;20223;-63
2021/11/28 11:57:43;;;;;;;;;;;;;;;5.29;89.68;99086.87;1758951;81;20221;-63
2021/11/28 12:00:20;;;;;;;;;;;;;;;5.32;89.89;99091.39;1759314;82;20491;-63
2021/11/28 12:02:57;;;;;;;;;;;;;;;5.38;89.93;99089.77;1742785;82;20204;-64
2021/11/28 12:05:33;;;;;;;;;;;;;;;5.43;89.95;99088.66;1759237;81;20177;-64
2021/11/28 12:08:08;;;;;;;;;;;;;;;5.47;89.96;99085.87;1758972;82;20153;-64
2021/11/28 12:10:43;;;;;;;;;;;;;;;5.51;90.03;99090.39;1741207;82;20488;-62
2021/11/28 12:13:28;;;;;;;;;;;;;;;5.55;90.12;99079.45;1757956;81;20213;-63
2021/11/28 12:16:05;;;;;;;;;;;;;;;5.61;90.23;99066.43;1758898;81;20158;-63
2021/11/28 12:18:41;;;;;;;;;;;;;;;5.70;90.35;99056.56;1758255;81;20153;-64
2021/11/28 12:21:11;;;;;;;;;;;;;;;5.77;90.30;99059.33;1757025;82;20173;-66
2021/11/28 12:23:58;;;;;;;;;;;;;;;5.82;90.16;99054.13;1757183;82;20154;-63
2021/11/28 12:26:34;;;;;;;;;;;;;;;5.82;90.15;99055.48;1742029;82;20487;-63
2021/11/28 12:29:12;;;;;;;;;;;;;;;5.83;90.05;99049.53;1724316;82;20216;-64
2021/11/28 12:31:45;;;;;;;;;;;;;;;5.81;90.00;99052.97;1759074;81;20149;-63
2021/11/28 12:34:22;;;;;;;;;;;;;;;5.82;90.07;99053.29;1758935;81;20141;-64
2021/11/28 12:36:51;;;;;;;;;;;;;;;5.86;90.14;99051.36;1743013;82;20145;-64
2021/11/28 12:39:24;;;;;;;;;;;;;;;5.94;90.15;99054.47;1758732;82;20185;-64
2021/11/28 12:42:05;;;;;;;;;;;;;;;5.97;90.12;99057.63;1759023;81;20192;-63
2021/11/28 12:44:45;;;;;;;;;;;;;;;5.99;90.16;99049.27;1742942;82;20177;-65
2021/11/28 12:47:29;;;;;;;;;;;;;;;6.02;90.26;99039.34;1758879;81;20149;-65
2021/11/28 12:50:01;;;;;;;;;;;;;;;6.06;90.23;99033.82;1742762;82;20242;-64
2021/11/28 12:52:39;;;;;;;;;;;;;;;6.12;90.23;99026.73;1726575;82;20159;-63
2021/11/28 12:55:13;;;;;;;;;;;;;;;6.13;90.12;99018.89;1725182;83;20466;-73
2021/11/28 12:58:01;;;;;;;;;;;;;;;6.17;90.17;99025.60;1758097;81;20150;-64
2021/11/28 13:00:37;;;;;;;;;;;;;;;6.19;90.24;99031.16;1759152;81;20525;-65
2021/11/28 13:03:11;;;;;;;;;;;;;;;6.21;90.20;99041.83;1758968;81;20165;-64
2021/11/28 13:05:43;;;;;;;;;;;;;;;6.22;90.20;99033.47;1742771;82;20271;-63
2021/11/28 13:08:18;;;;;;;;;;;;;;;6.27;90.19;99028.78;1740408;82;20189;-62
2021/11/28 13:10:53;;;;;;;;;;;;;;;6.29;90.14;99027.53;1733132;82;20519;-64
2021/11/28 13:13:27;;;;;;;;;;;;;;;6.29;90.09;99020.73;1732823;82;20233;-63
2021/11/28 13:16:01;;;;;;;;;;;;;;;6.25;90.11;99024.91;1732799;83;20214;-64
2021/11/28 13:18:36;;;;;;;;;;;;;;;6.24;90.20;99018.31;1735011;82;20257;-62
2021/11/28 13:21:10;;;;;;;;;;;;;;;6.20;90.22;98999.36;1674550;85;20163;-64
2021/11/28 13:23:58;;;;;;;;;;;;;;;6.17;90.21;98981.58;1656153;87;20207;-63
2021/11/28 13:26:55;;;;;;;;;;;;;;;6.16;90.36;98992.66;1731187;83;20183;-64
2021/11/28 13:29:25;;;;;;;;;;;;;;;6.13;90.42;99000.70;1728229;83;20154;-62
2021/11/28 13:31:59;;;;;;;;;;;;;;;6.09;90.45;98999.95;1645296;86;20177;-67
2021/11/28 13:34:43;;;;;;;;;;;;;;;6.08;90.65;99007.79;1645578;87;20178;-64
2021/11/28 13:37:30;;;;;;;;;;;;;;;6.09;90.79;98994.52;1645457;87;20180;-65
2021/11/28 13:40:12;;;;;;;;;;;;;;;6.09;90.69;98987.72;1645500;87;20176;-65